sensor_id;sensor_type;location;lat;lon;timestamp;P1;durP1;ratioP1;P2;durP2;ratioP2
20441;SDS011;10380;52.102;20.614;2022-08-07T00:00:24;3.63;;;2.35;;
20441;SDS011;10380;52.102;20.614;2022-08-07T00:02:53;3.47;;;2.47;;
20441;SDS011;10380;52.102;20.614;2022-08-07T00:05:25;5.13;;;2.95;;
20441;SDS011;10380;52.102;20.614;2022-08-07T00:07:55;4.93;;;2.35;;
20441;SDS011;10380;52.102;20.614;2022-08-07T00:10:28;4.45;;;2.92;;
20441;SDS011;10380;52.102;20.614;2022-08-07T00:12:57;7.35;;;2.38;;
20441;SDS011;10380;52.102;20.614;2022-08-07T00:15:35;3.20;;;2.30;;
20441;SDS011;10380;52.102;20.614;2022-08-07T00:18:13;3.35;;;2.33;;
20441;SDS011;10380;52.102;20.614;2022-08-07T00:20:45;5.35;;;2.65;;
20441;SDS011;10380;52.102;20.614;2022-08-07T00:23:14;3.95;;;2.03;;
20441;SDS011;10380;52.102;20.614;2022-08-07T00:25:42;7.70;;;2.63;;
20441;SDS011;10380;52.102;20.614;2022-08-07T00:28:18;4.00;;;2.30;;
20441;SDS011;10380;52.102;20.614;2022-08-07T00:30:48;3.92;;;2.10;;
20441;SDS011;10380;52.102;20.614;2022-08-07T00:33:15;4.07;;;2.92;;
20441;SDS011;10380;52.102;20.614;2022-08-07T00:35:42;3.83;;;2.78;;
20441;SDS011;10380;52.102;20.614;2022-08-07T00:38:16;5.45;;;2.53;;
20441;SDS011;10380;52.102;20.614;2022-08-07T00:40:57;2.80;;;2.00;;
20441;SDS011;10380;52.102;20.614;2022-08-07T00:43:26;4.95;;;1.92;;
20441;SDS011;10380;52.102;20.614;2022-08-07T00:46:13;4.13;;;2.53;;
20441;SDS011;10380;52.102;20.614;2022-08-07T00:48:40;4.95;;;2.53;;
20441;SDS011;10380;52.102;20.614;2022-08-07T00:51:08;4.47;;;2.67;;
20441;SDS011;10380;52.102;20.614;2022-08-07T00:53:36;4.88;;;2.17;;
20441;SDS011;10380;52.102;20.614;2022-08-07T00:56:15;7.68;;;2.95;;
20441;SDS011;10380;52.102;20.614;2022-08-07T00:58:43;3.40;;;2.28;;
20441;SDS011;10380;52.102;20.614;2022-08-07T01:01:15;3.63;;;2.50;;
20441;SDS011;10380;52.102;20.614;2022-08-07T01:03:46;7.93;;;2.63;;
20441;SDS011;10380;52.102;20.614;2022-08-07T01:06:28;9.93;;;2.47;;
20441;SDS011;10380;52.102;20.614;2022-08-07T01:08:58;4.47;;;2.17;;
20441;SDS011;10380;52.102;20.614;2022-08-07T01:11:29;6.75;;;2.30;;
20441;SDS011;10380;52.102;20.614;2022-08-07T01:14:21;6.57;;;3.20;;
20441;SDS011;10380;52.102;20.614;2022-08-07T01:16:54;5.07;;;3.00;;
20441;SDS011;10380;52.102;20.614;2022-08-07T01:19:22;6.03;;;2.72;;
20441;SDS011;10380;52.102;20.614;2022-08-07T01:21:51;3.63;;;2.40;;
20441;SDS011;10380;52.102;20.614;2022-08-07T01:24:22;3.58;;;2.40;;
20441;SDS011;10380;52.102;20.614;2022-08-07T01:26:52;5.80;;;2.63;;
20441;SDS011;10380;52.102;20.614;2022-08-07T01:29:23;4.15;;;2.20;;
20441;SDS011;10380;52.102;20.614;2022-08-07T01:31:56;4.07;;;2.90;;
20441;SDS011;10380;52.102;20.614;2022-08-07T01:34:24;5.70;;;2.75;;
20441;SDS011;10380;52.102;20.614;2022-08-07T01:36:56;4.25;;;2.50;;
20441;SDS011;10380;52.102;20.614;2022-08-07T01:39:24;4.45;;;2.55;;
20441;SDS011;10380;52.102;20.614;2022-08-07T01:42:15;6.10;;;3.35;;
20441;SDS011;10380;52.102;20.614;2022-08-07T01:45:03;3.25;;;2.42;;
20441;SDS011;10380;52.102;20.614;2022-08-07T01:47:42;4.73;;;2.70;;
20441;SDS011;10380;52.102;20.614;2022-08-07T01:50:30;6.88;;;2.45;;
20441;SDS011;10380;52.102;20.614;2022-08-07T01:52:58;3.88;;;2.80;;
20441;SDS011;10380;52.102;20.614;2022-08-07T01:55:38;4.10;;;2.25;;
20441;SDS011;10380;52.102;20.614;2022-08-07T01:58:12;5.10;;;2.80;;
20441;SDS011;10380;52.102;20.614;2022-08-07T02:00:56;12.80;;;4.63;;
20441;SDS011;10380;52.102;20.614;2022-08-07T02:03:48;3.42;;;2.35;;
20441;SDS011;10380;52.102;20.614;2022-08-07T02:06:19;4.50;;;2.40;;
20441;SDS011;10380;52.102;20.614;2022-08-07T02:08:57;3.15;;;2.85;;
20441;SDS011;10380;52.102;20.614;2022-08-07T02:11:31;7.07;;;2.50;;
20441;SDS011;10380;52.102;20.614;2022-08-07T02:14:21;5.15;;;2.95;;
20441;SDS011;10380;52.102;20.614;2022-08-07T02:17:06;5.15;;;2.50;;
20441;SDS011;10380;52.102;20.614;2022-08-07T02:19:37;4.00;;;2.72;;
20441;SDS011;10380;52.102;20.614;2022-08-07T02:22:28;8.93;;;3.55;;
20441;SDS011;10380;52.102;20.614;2022-08-07T02:24:58;7.22;;;2.75;;
20441;SDS011;10380;52.102;20.614;2022-08-07T02:27:33;4.13;;;2.20;;
20441;SDS011;10380;52.102;20.614;2022-08-07T02:30:07;3.28;;;2.50;;
20441;SDS011;10380;52.102;20.614;2022-08-07T02:32:36;5.13;;;2.77;;
20441;SDS011;10380;52.102;20.614;2022-08-07T02:35:24;5.22;;;3.58;;
20441;SDS011;10380;52.102;20.614;2022-08-07T02:38:11;9.07;;;2.73;;
20441;SDS011;10380;52.102;20.614;2022-08-07T02:40:41;4.50;;;2.47;;
20441;SDS011;10380;52.102;20.614;2022-08-07T02:43:12;2.97;;;2.30;;
20441;SDS011;10380;52.102;20.614;2022-08-07T02:45:41;4.30;;;2.70;;
20441;SDS011;10380;52.102;20.614;2022-08-07T02:48:26;6.50;;;2.70;;
20441;SDS011;10380;52.102;20.614;2022-08-07T02:50:55;3.93;;;2.53;;
20441;SDS011;10380;52.102;20.614;2022-08-07T02:53:25;5.55;;;2.53;;
20441;SDS011;10380;52.102;20.614;2022-08-07T02:56:04;5.03;;;3.30;;
20441;SDS011;10380;52.102;20.614;2022-08-07T02:58:44;2.87;;;2.53;;
20441;SDS011;10380;52.102;20.614;2022-08-07T03:01:13;5.33;;;2.47;;
20441;SDS011;10380;52.102;20.614;2022-08-07T03:04:03;5.80;;;2.60;;
20441;SDS011;10380;52.102;20.614;2022-08-07T03:06:38;5.07;;;3.10;;
20441;SDS011;10380;52.102;20.614;2022-08-07T03:09:10;4.23;;;2.57;;
20441;SDS011;10380;52.102;20.614;2022-08-07T03:11:38;6.03;;;3.43;;
20441;SDS011;10380;52.102;20.614;2022-08-07T03:14:23;7.32;;;3.08;;
20441;SDS011;10380;52.102;20.614;2022-08-07T03:16:54;4.87;;;3.00;;
20441;SDS011;10380;52.102;20.614;2022-08-07T03:19:21;5.37;;;3.27;;
20441;SDS011;10380;52.102;20.614;2022-08-07T03:21:54;8.80;;;2.50;;
20441;SDS011;10380;52.102;20.614;2022-08-07T03:24:24;4.93;;;2.83;;
20441;SDS011;10380;52.102;20.614;2022-08-07T03:26:53;6.93;;;3.00;;
20441;SDS011;10380;52.102;20.614;2022-08-07T03:29:31;6.23;;;2.70;;
20441;SDS011;10380;52.102;20.614;2022-08-07T03:32:04;5.40;;;2.97;;
20441;SDS011;10380;52.102;20.614;2022-08-07T03:34:39;8.37;;;4.60;;
20441;SDS011;10380;52.102;20.614;2022-08-07T03:37:28;8.03;;;3.33;;
20441;SDS011;10380;52.102;20.614;2022-08-07T03:40:11;4.72;;;3.03;;
20441;SDS011;10380;52.102;20.614;2022-08-07T03:42:42;4.97;;;3.03;;
20441;SDS011;10380;52.102;20.614;2022-08-07T03:45:09;12.47;;;3.30;;
20441;SDS011;10380;52.102;20.614;2022-08-07T03:47:55;4.83;;;2.93;;
20441;SDS011;10380;52.102;20.614;2022-08-07T03:50:24;8.93;;;3.07;;
20441;SDS011;10380;52.102;20.614;2022-08-07T03:52:55;4.33;;;3.27;;
20441;SDS011;10380;52.102;20.614;2022-08-07T03:55:25;6.47;;;3.23;;
20441;SDS011;10380;52.102;20.614;2022-08-07T03:58:14;6.77;;;3.40;;
20441;SDS011;10380;52.102;20.614;2022-08-07T04:01:03;6.60;;;2.63;;
20441;SDS011;10380;52.102;20.614;2022-08-07T04:03:33;5.50;;;2.97;;
20441;SDS011;10380;52.102;20.614;2022-08-07T04:06:19;4.85;;;3.03;;
20441;SDS011;10380;52.102;20.614;2022-08-07T04:09:05;6.87;;;3.33;;
20441;SDS011;10380;52.102;20.614;2022-08-07T04:11:40;5.33;;;3.70;;
20441;SDS011;10380;52.102;20.614;2022-08-07T04:14:29;6.53;;;3.20;;
20441;SDS011;10380;52.102;20.614;2022-08-07T04:17:08;4.93;;;3.20;;
20441;SDS011;10380;52.102;20.614;2022-08-07T04:19:47;5.90;;;2.95;;
20441;SDS011;10380;52.102;20.614;2022-08-07T04:22:17;3.63;;;3.33;;
20441;SDS011;10380;52.102;20.614;2022-08-07T04:24:48;4.82;;;3.60;;
20441;SDS011;10380;52.102;20.614;2022-08-07T04:27:16;5.10;;;3.30;;
20441;SDS011;10380;52.102;20.614;2022-08-07T04:29:51;5.20;;;3.83;;
20441;SDS011;10380;52.102;20.614;2022-08-07T04:32:27;5.18;;;3.83;;
20441;SDS011;10380;52.102;20.614;2022-08-07T04:35:01;3.65;;;3.28;;
20441;SDS011;10380;52.102;20.614;2022-08-07T04:37:36;8.60;;;4.95;;
20441;SDS011;10380;52.102;20.614;2022-08-07T04:40:24;8.13;;;3.97;;
20441;SDS011;10380;52.102;20.614;2022-08-07T04:42:57;5.07;;;3.45;;
20441;SDS011;10380;52.102;20.614;2022-08-07T04:45:33;6.72;;;3.78;;
20441;SDS011;10380;52.102;20.614;2022-08-07T04:48:37;4.38;;;3.58;;
20441;SDS011;10380;52.102;20.614;2022-08-07T04:51:37;6.30;;;4.15;;
20441;SDS011;10380;52.102;20.614;2022-08-07T05:00:10;5.75;;;3.35;;
20441;SDS011;10380;52.102;20.614;2022-08-07T05:05:54;5.07;;;3.03;;
20441;SDS011;10380;52.102;20.614;2022-08-07T05:08:50;5.13;;;2.63;;
20441;SDS011;10380;52.102;20.614;2022-08-07T05:11:51;5.03;;;3.25;;
20441;SDS011;10380;52.102;20.614;2022-08-07T05:14:29;7.57;;;2.97;;
20441;SDS011;10380;52.102;20.614;2022-08-07T05:17:21;5.00;;;2.60;;
20441;SDS011;10380;52.102;20.614;2022-08-07T05:20:13;2.90;;;2.60;;
20441;SDS011;10380;52.102;20.614;2022-08-07T05:22:44;6.40;;;2.88;;
20441;SDS011;10380;52.102;20.614;2022-08-07T05:25:15;6.22;;;2.97;;
20441;SDS011;10380;52.102;20.614;2022-08-07T05:28:05;5.78;;;3.75;;
20441;SDS011;10380;52.102;20.614;2022-08-07T05:30:48;6.93;;;3.80;;
20441;SDS011;10380;52.102;20.614;2022-08-07T05:33:18;5.53;;;3.17;;
20441;SDS011;10380;52.102;20.614;2022-08-07T05:35:47;6.00;;;3.45;;
20441;SDS011;10380;52.102;20.614;2022-08-07T05:38:16;3.65;;;2.95;;
20441;SDS011;10380;52.102;20.614;2022-08-07T05:41:07;11.27;;;4.18;;
20441;SDS011;10380;52.102;20.614;2022-08-07T05:43:42;8.20;;;3.13;;
20441;SDS011;10380;52.102;20.614;2022-08-07T05:46:36;4.13;;;2.70;;
20441;SDS011;10380;52.102;20.614;2022-08-07T05:49:07;4.28;;;2.67;;
20441;SDS011;10380;52.102;20.614;2022-08-07T05:51:40;5.53;;;2.83;;
20441;SDS011;10380;52.102;20.614;2022-08-07T05:54:12;5.45;;;3.10;;
20441;SDS011;10380;52.102;20.614;2022-08-07T05:56:56;3.55;;;3.05;;
20441;SDS011;10380;52.102;20.614;2022-08-07T05:59:24;6.05;;;3.13;;
20441;SDS011;10380;52.102;20.614;2022-08-07T06:01:53;6.38;;;2.50;;
20441;SDS011;10380;52.102;20.614;2022-08-07T06:04:22;6.28;;;2.70;;
20441;SDS011;10380;52.102;20.614;2022-08-07T06:06:55;9.73;;;2.33;;
20441;SDS011;10380;52.102;20.614;2022-08-07T06:09:31;5.47;;;2.60;;
20441;SDS011;10380;52.102;20.614;2022-08-07T06:12:19;3.78;;;2.08;;
20441;SDS011;10380;52.102;20.614;2022-08-07T06:14:58;5.25;;;2.53;;
20441;SDS011;10380;52.102;20.614;2022-08-07T06:17:31;4.78;;;2.17;;
20441;SDS011;10380;52.102;20.614;2022-08-07T06:20:04;6.50;;;2.50;;
20441;SDS011;10380;52.102;20.614;2022-08-07T06:22:51;4.28;;;1.95;;
20441;SDS011;10380;52.102;20.614;2022-08-07T06:25:39;5.78;;;2.25;;
20441;SDS011;10380;52.102;20.614;2022-08-07T06:28:22;5.35;;;1.80;;
20441;SDS011;10380;52.102;20.614;2022-08-07T06:30:53;3.80;;;1.40;;
20441;SDS011;10380;52.102;20.614;2022-08-07T06:33:23;3.25;;;1.48;;
20441;SDS011;10380;52.102;20.614;2022-08-07T06:35:50;5.10;;;1.70;;
20441;SDS011;10380;52.102;20.614;2022-08-07T06:38:38;3.42;;;1.30;;
20441;SDS011;10380;52.102;20.614;2022-08-07T06:41:32;3.30;;;1.30;;
20441;SDS011;10380;52.102;20.614;2022-08-07T06:44:21;3.17;;;1.73;;
20441;SDS011;10380;52.102;20.614;2022-08-07T06:46:50;3.80;;;1.23;;
20441;SDS011;10380;52.102;20.614;2022-08-07T06:49:35;2.60;;;1.58;;
20441;SDS011;10380;52.102;20.614;2022-08-07T06:52:22;3.63;;;1.63;;
20441;SDS011;10380;52.102;20.614;2022-08-07T06:55:10;6.60;;;1.60;;
20441;SDS011;10380;52.102;20.614;2022-08-07T06:58:06;9.32;;;2.75;;
20441;SDS011;10380;52.102;20.614;2022-08-07T07:00:37;3.35;;;1.92;;
20441;SDS011;10380;52.102;20.614;2022-08-07T07:03:08;5.28;;;1.33;;
20441;SDS011;10380;52.102;20.614;2022-08-07T07:05:40;4.85;;;1.30;;
20441;SDS011;10380;52.102;20.614;2022-08-07T07:08:28;5.38;;;1.25;;
20441;SDS011;10380;52.102;20.614;2022-08-07T07:10:58;2.80;;;1.35;;
20441;SDS011;10380;52.102;20.614;2022-08-07T07:13:39;2.20;;;1.00;;
20441;SDS011;10380;52.102;20.614;2022-08-07T07:16:27;2.17;;;1.15;;
20441;SDS011;10380;52.102;20.614;2022-08-07T07:19:17;2.63;;;1.42;;
20441;SDS011;10380;52.102;20.614;2022-08-07T07:22:08;4.18;;;1.40;;
20441;SDS011;10380;52.102;20.614;2022-08-07T07:24:56;3.22;;;1.15;;
20441;SDS011;10380;52.102;20.614;2022-08-07T07:30:56;2.33;;;1.13;;
20441;SDS011;10380;52.102;20.614;2022-08-07T07:33:32;2.97;;;1.15;;
20441;SDS011;10380;52.102;20.614;2022-08-07T07:36:02;6.68;;;1.98;;
20441;SDS011;10380;52.102;20.614;2022-08-07T07:38:39;3.38;;;1.08;;
20441;SDS011;10380;52.102;20.614;2022-08-07T07:41:11;1.98;;;1.10;;
20441;SDS011;10380;52.102;20.614;2022-08-07T07:43:42;4.15;;;1.58;;
20441;SDS011;10380;52.102;20.614;2022-08-07T07:46:32;2.70;;;1.10;;
20441;SDS011;10380;52.102;20.614;2022-08-07T07:49:21;4.00;;;1.42;;
20441;SDS011;10380;52.102;20.614;2022-08-07T07:52:10;3.00;;;1.02;;
20441;SDS011;10380;52.102;20.614;2022-08-07T07:54:41;4.72;;;1.08;;
20441;SDS011;10380;52.102;20.614;2022-08-07T07:57:17;3.15;;;1.10;;
20441;SDS011;10380;52.102;20.614;2022-08-07T08:00:07;2.83;;;1.15;;
20441;SDS011;10380;52.102;20.614;2022-08-07T08:02:34;2.08;;;1.05;;
20441;SDS011;10380;52.102;20.614;2022-08-07T08:05:24;2.03;;;0.90;;
20441;SDS011;10380;52.102;20.614;2022-08-07T08:08:09;1.75;;;0.70;;
20441;SDS011;10380;52.102;20.614;2022-08-07T08:10:57;4.07;;;1.08;;
20441;SDS011;10380;52.102;20.614;2022-08-07T08:13:26;5.80;;;1.00;;
20441;SDS011;10380;52.102;20.614;2022-08-07T08:16:17;3.60;;;1.02;;
20441;SDS011;10380;52.102;20.614;2022-08-07T08:18:52;3.67;;;0.90;;
20441;SDS011;10380;52.102;20.614;2022-08-07T08:21:22;4.10;;;1.20;;
20441;SDS011;10380;52.102;20.614;2022-08-07T08:24:26;3.03;;;1.00;;
20441;SDS011;10380;52.102;20.614;2022-08-07T08:27:31;2.38;;;0.80;;
20441;SDS011;10380;52.102;20.614;2022-08-07T08:30:07;2.58;;;1.02;;
20441;SDS011;10380;52.102;20.614;2022-08-07T08:32:44;4.30;;;0.93;;
20441;SDS011;10380;52.102;20.614;2022-08-07T08:35:22;3.03;;;1.00;;
20441;SDS011;10380;52.102;20.614;2022-08-07T08:37:58;2.72;;;0.90;;
20441;SDS011;10380;52.102;20.614;2022-08-07T08:40:38;3.58;;;1.30;;
20441;SDS011;10380;52.102;20.614;2022-08-07T08:43:22;1.92;;;0.90;;
20441;SDS011;10380;52.102;20.614;2022-08-07T08:49:35;3.05;;;1.27;;
20441;SDS011;10380;52.102;20.614;2022-08-07T08:52:32;2.92;;;1.10;;
20441;SDS011;10380;52.102;20.614;2022-08-07T09:00:58;1.33;;;1.20;;
20441;SDS011;10380;52.102;20.614;2022-08-07T09:09:34;2.95;;;1.27;;
20441;SDS011;10380;52.102;20.614;2022-08-07T09:12:21;2.90;;;1.33;;
20441;SDS011;10380;52.102;20.614;2022-08-07T09:21:34;3.40;;;1.00;;
20441;SDS011;10380;52.102;20.614;2022-08-07T09:27:39;1.73;;;1.00;;
20441;SDS011;10380;52.102;20.614;2022-08-07T09:30:50;2.65;;;0.90;;
20441;SDS011;10380;52.102;20.614;2022-08-07T09:33:46;2.33;;;0.85;;
20441;SDS011;10380;52.102;20.614;2022-08-07T09:39:15;0.80;;;0.80;;
20441;SDS011;10380;52.102;20.614;2022-08-07T09:42:15;1.67;;;0.90;;
20441;SDS011;10380;52.102;20.614;2022-08-07T09:51:18;1.25;;;0.90;;
20441;SDS011;10380;52.102;20.614;2022-08-07T10:00:28;1.75;;;1.00;;
20441;SDS011;10380;52.102;20.614;2022-08-07T10:17:31;1.17;;;0.70;;
20441;SDS011;10380;52.102;20.614;2022-08-07T10:20:36;1.50;;;0.70;;
20441;SDS011;10380;52.102;20.614;2022-08-07T10:37:58;2.38;;;0.90;;
20441;SDS011;10380;52.102;20.614;2022-08-07T10:44:33;1.58;;;0.80;;
20441;SDS011;10380;52.102;20.614;2022-08-07T10:50:15;3.45;;;1.10;;
20441;SDS011;10380;52.102;20.614;2022-08-07T10:52:58;1.52;;;0.90;;
20441;SDS011;10380;52.102;20.614;2022-08-07T10:55:40;1.90;;;0.90;;
20441;SDS011;10380;52.102;20.614;2022-08-07T10:58:38;2.72;;;1.10;;
20441;SDS011;10380;52.102;20.614;2022-08-07T11:01:37;1.73;;;0.93;;
20441;SDS011;10380;52.102;20.614;2022-08-07T11:13:24;4.80;;;1.05;;
20441;SDS011;10380;52.102;20.614;2022-08-07T11:16:24;1.40;;;0.80;;
20441;SDS011;10380;52.102;20.614;2022-08-07T11:24:21;2.70;;;1.00;;
20441;SDS011;10380;52.102;20.614;2022-08-07T11:27:01;1.25;;;0.90;;
20441;SDS011;10380;52.102;20.614;2022-08-07T11:29:40;4.38;;;1.20;;
20441;SDS011;10380;52.102;20.614;2022-08-07T11:32:39;0.82;;;0.77;;
20441;SDS011;10380;52.102;20.614;2022-08-07T11:35:19;1.48;;;0.80;;
20441;SDS011;10380;52.102;20.614;2022-08-07T11:43:25;1.55;;;0.80;;
20441;SDS011;10380;52.102;20.614;2022-08-07T11:58:39;1.73;;;0.80;;
20441;SDS011;10380;52.102;20.614;2022-08-07T12:01:22;1.30;;;0.70;;
20441;SDS011;10380;52.102;20.614;2022-08-07T12:06:55;2.85;;;0.60;;
20441;SDS011;10380;52.102;20.614;2022-08-07T12:10:03;1.02;;;0.55;;
20441;SDS011;10380;52.102;20.614;2022-08-07T12:12:50;1.63;;;1.10;;
20441;SDS011;10380;52.102;20.614;2022-08-07T12:15:26;1.27;;;0.50;;
20441;SDS011;10380;52.102;20.614;2022-08-07T12:18:34;0.82;;;0.63;;
20441;SDS011;10380;52.102;20.614;2022-08-07T12:21:18;2.17;;;0.70;;
20441;SDS011;10380;52.102;20.614;2022-08-07T12:24:13;1.50;;;0.60;;
20441;SDS011;10380;52.102;20.614;2022-08-07T12:34:55;1.23;;;0.50;;
20441;SDS011;10380;52.102;20.614;2022-08-07T12:37:26;2.58;;;0.60;;
20441;SDS011;10380;52.102;20.614;2022-08-07T12:40:16;1.63;;;0.60;;
20441;SDS011;10380;52.102;20.614;2022-08-07T12:43:07;0.95;;;0.57;;
20441;SDS011;10380;52.102;20.614;2022-08-07T12:48:28;1.98;;;0.50;;
20441;SDS011;10380;52.102;20.614;2022-08-07T12:51:18;0.98;;;0.50;;
20441;SDS011;10380;52.102;20.614;2022-08-07T12:54:28;1.77;;;0.63;;
20441;SDS011;10380;52.102;20.614;2022-08-07T12:57:04;0.85;;;0.60;;
20441;SDS011;10380;52.102;20.614;2022-08-07T12:59:35;0.55;;;0.50;;
20441;SDS011;10380;52.102;20.614;2022-08-07T13:05:37;1.30;;;0.50;;
20441;SDS011;10380;52.102;20.614;2022-08-07T13:11:22;0.70;;;0.50;;
20441;SDS011;10380;52.102;20.614;2022-08-07T13:14:42;1.05;;;0.60;;
20441;SDS011;10380;52.102;20.614;2022-08-07T13:22:45;0.73;;;0.57;;
20441;SDS011;10380;52.102;20.614;2022-08-07T13:25:28;2.20;;;0.80;;
20441;SDS011;10380;52.102;20.614;2022-08-07T13:28:01;2.00;;;0.60;;
20441;SDS011;10380;52.102;20.614;2022-08-07T13:30:42;1.35;;;0.60;;
20441;SDS011;10380;52.102;20.614;2022-08-07T13:33:37;0.93;;;0.50;;
20441;SDS011;10380;52.102;20.614;2022-08-07T13:36:40;3.08;;;0.60;;
20441;SDS011;10380;52.102;20.614;2022-08-07T13:39:38;1.13;;;0.50;;
20441;SDS011;10380;52.102;20.614;2022-08-07T13:42:48;2.22;;;0.77;;
20441;SDS011;10380;52.102;20.614;2022-08-07T13:45:19;1.02;;;0.52;;
20441;SDS011;10380;52.102;20.614;2022-08-07T13:48:08;1.02;;;0.50;;
20441;SDS011;10380;52.102;20.614;2022-08-07T13:50:57;1.98;;;0.50;;
20441;SDS011;10380;52.102;20.614;2022-08-07T13:53:32;1.67;;;0.52;;
20441;SDS011;10380;52.102;20.614;2022-08-07T13:56:23;1.10;;;0.63;;
20441;SDS011;10380;52.102;20.614;2022-08-07T13:59:28;2.15;;;0.40;;
20441;SDS011;10380;52.102;20.614;2022-08-07T14:01:59;2.20;;;0.60;;
20441;SDS011;10380;52.102;20.614;2022-08-07T14:07:21;2.75;;;0.80;;
20441;SDS011;10380;52.102;20.614;2022-08-07T14:09:56;2.75;;;1.00;;
20441;SDS011;10380;52.102;20.614;2022-08-07T14:15:07;2.75;;;1.23;;
20441;SDS011;10380;52.102;20.614;2022-08-07T14:17:47;1.45;;;0.70;;
20441;SDS011;10380;52.102;20.614;2022-08-07T14:20:38;1.70;;;0.73;;
20441;SDS011;10380;52.102;20.614;2022-08-07T14:23:20;2.28;;;0.60;;
20441;SDS011;10380;52.102;20.614;2022-08-07T14:26:19;1.05;;;0.40;;
20441;SDS011;10380;52.102;20.614;2022-08-07T14:28:54;2.58;;;0.60;;
20441;SDS011;10380;52.102;20.614;2022-08-07T14:31:44;0.93;;;0.55;;
20441;SDS011;10380;52.102;20.614;2022-08-07T14:37:06;2.65;;;0.50;;
20441;SDS011;10380;52.102;20.614;2022-08-07T14:39:42;0.75;;;0.60;;
20441;SDS011;10380;52.102;20.614;2022-08-07T14:42:33;2.08;;;0.50;;
20441;SDS011;10380;52.102;20.614;2022-08-07T14:45:28;1.33;;;0.80;;
20441;SDS011;10380;52.102;20.614;2022-08-07T14:48:21;1.15;;;0.60;;
20441;SDS011;10380;52.102;20.614;2022-08-07T14:51:44;1.05;;;0.70;;
20441;SDS011;10380;52.102;20.614;2022-08-07T14:54:14;2.00;;;0.60;;
20441;SDS011;10380;52.102;20.614;2022-08-07T14:57:04;1.83;;;0.80;;
20441;SDS011;10380;52.102;20.614;2022-08-07T14:59:43;1.45;;;0.40;;
20441;SDS011;10380;52.102;20.614;2022-08-07T15:02:32;0.57;;;0.50;;
20441;SDS011;10380;52.102;20.614;2022-08-07T15:05:04;1.42;;;0.60;;
20441;SDS011;10380;52.102;20.614;2022-08-07T15:07:50;2.35;;;0.63;;
20441;SDS011;10380;52.102;20.614;2022-08-07T15:10:19;3.00;;;0.80;;
20441;SDS011;10380;52.102;20.614;2022-08-07T15:13:18;1.67;;;0.60;;
20441;SDS011;10380;52.102;20.614;2022-08-07T15:16:02;2.83;;;0.70;;
20441;SDS011;10380;52.102;20.614;2022-08-07T15:18:53;1.55;;;0.50;;
20441;SDS011;10380;52.102;20.614;2022-08-07T15:21:27;1.42;;;0.60;;
20441;SDS011;10380;52.102;20.614;2022-08-07T15:24:18;0.65;;;0.50;;
20441;SDS011;10380;52.102;20.614;2022-08-07T15:27:08;2.15;;;0.60;;
20441;SDS011;10380;52.102;20.614;2022-08-07T15:29:53;1.52;;;0.50;;
20441;SDS011;10380;52.102;20.614;2022-08-07T15:32:47;1.13;;;0.50;;
20441;SDS011;10380;52.102;20.614;2022-08-07T15:35:33;1.50;;;0.60;;
20441;SDS011;10380;52.102;20.614;2022-08-07T15:38:26;2.00;;;0.63;;
20441;SDS011;10380;52.102;20.614;2022-08-07T15:41:16;1.17;;;0.50;;
20441;SDS011;10380;52.102;20.614;2022-08-07T15:44:10;1.58;;;0.68;;
20441;SDS011;10380;52.102;20.614;2022-08-07T15:46:40;3.33;;;0.70;;
20441;SDS011;10380;52.102;20.614;2022-08-07T15:49:17;1.05;;;0.50;;
20441;SDS011;10380;52.102;20.614;2022-08-07T15:52:08;0.95;;;0.60;;
20441;SDS011;10380;52.102;20.614;2022-08-07T15:54:42;1.38;;;0.50;;
20441;SDS011;10380;52.102;20.614;2022-08-07T15:57:14;3.10;;;0.80;;
20441;SDS011;10380;52.102;20.614;2022-08-07T16:00:10;3.97;;;0.77;;
20441;SDS011;10380;52.102;20.614;2022-08-07T16:02:57;3.60;;;2.00;;
20441;SDS011;10380;52.102;20.614;2022-08-07T16:05:29;8.93;;;4.95;;
20441;SDS011;10380;52.102;20.614;2022-08-07T16:08:09;4.32;;;1.23;;
20441;SDS011;10380;52.102;20.614;2022-08-07T16:11:02;2.22;;;0.75;;
20441;SDS011;10380;52.102;20.614;2022-08-07T16:14:13;2.05;;;0.75;;
20441;SDS011;10380;52.102;20.614;2022-08-07T16:23:06;2.05;;;0.80;;
20441;SDS011;10380;52.102;20.614;2022-08-07T16:32:26;0.73;;;0.70;;
20441;SDS011;10380;52.102;20.614;2022-08-07T17:02:19;0.95;;;0.80;;
20441;SDS011;10380;52.102;20.614;2022-08-07T17:11:37;1.02;;;0.82;;
20441;SDS011;10380;52.102;20.614;2022-08-07T17:17:36;2.58;;;0.82;;
20441;SDS011;10380;52.102;20.614;2022-08-07T17:35:22;3.13;;;1.40;;
20441;SDS011;10380;52.102;20.614;2022-08-07T17:38:16;2.47;;;1.13;;
20441;SDS011;10380;52.102;20.614;2022-08-07T17:43:51;1.98;;;1.65;;
20441;SDS011;10380;52.102;20.614;2022-08-07T17:46:41;1.75;;;1.27;;
20441;SDS011;10380;52.102;20.614;2022-08-07T17:49:22;4.03;;;1.50;;
20441;SDS011;10380;52.102;20.614;2022-08-07T17:54:49;3.22;;;1.20;;
20441;SDS011;10380;52.102;20.614;2022-08-07T17:57:32;3.45;;;1.00;;
20441;SDS011;10380;52.102;20.614;2022-08-07T18:00:26;2.08;;;1.42;;
20441;SDS011;10380;52.102;20.614;2022-08-07T18:03:24;2.40;;;1.30;;
20441;SDS011;10380;52.102;20.614;2022-08-07T18:06:18;7.13;;;1.25;;
20441;SDS011;10380;52.102;20.614;2022-08-07T18:09:05;6.28;;;1.65;;
20441;SDS011;10380;52.102;20.614;2022-08-07T18:14:42;5.57;;;1.35;;
20441;SDS011;10380;52.102;20.614;2022-08-07T18:17:35;3.47;;;1.33;;
20441;SDS011;10380;52.102;20.614;2022-08-07T18:20:37;3.28;;;1.33;;
20441;SDS011;10380;52.102;20.614;2022-08-07T18:33:03;8.90;;;3.50;;
20441;SDS011;10380;52.102;20.614;2022-08-07T18:35:47;7.97;;;3.70;;
20441;SDS011;10380;52.102;20.614;2022-08-07T18:54:09;10.85;;;3.85;;
20441;SDS011;10380;52.102;20.614;2022-08-07T19:05:29;11.20;;;4.40;;
20441;SDS011;10380;52.102;20.614;2022-08-07T19:11:15;11.00;;;3.72;;
20441;SDS011;10380;52.102;20.614;2022-08-07T19:14:09;7.18;;;3.85;;
20441;SDS011;10380;52.102;20.614;2022-08-07T19:16:48;8.70;;;3.53;;
20441;SDS011;10380;52.102;20.614;2022-08-07T19:25:02;8.75;;;4.07;;
20441;SDS011;10380;52.102;20.614;2022-08-07T19:27:32;6.68;;;4.18;;
20441;SDS011;10380;52.102;20.614;2022-08-07T19:30:21;9.30;;;4.18;;
20441;SDS011;10380;52.102;20.614;2022-08-07T19:33:16;9.05;;;3.45;;
20441;SDS011;10380;52.102;20.614;2022-08-07T19:36:00;10.55;;;3.70;;
20441;SDS011;10380;52.102;20.614;2022-08-07T19:38:29;6.97;;;3.22;;
20441;SDS011;10380;52.102;20.614;2022-08-07T19:43:36;7.07;;;3.72;;
20441;SDS011;10380;52.102;20.614;2022-08-07T19:46:16;7.20;;;3.63;;
20441;SDS011;10380;52.102;20.614;2022-08-07T19:49:03;6.57;;;3.85;;
20441;SDS011;10380;52.102;20.614;2022-08-07T19:51:35;8.80;;;3.83;;
20441;SDS011;10380;52.102;20.614;2022-08-07T19:54:22;9.88;;;4.68;;
20441;SDS011;10380;52.102;20.614;2022-08-07T20:00:09;9.70;;;4.63;;
20441;SDS011;10380;52.102;20.614;2022-08-07T20:06:00;7.15;;;3.78;;
20441;SDS011;10380;52.102;20.614;2022-08-07T20:08:32;7.28;;;3.50;;
20441;SDS011;10380;52.102;20.614;2022-08-07T20:11:10;6.05;;;3.47;;
20441;SDS011;10380;52.102;20.614;2022-08-07T20:13:51;6.38;;;3.97;;
20441;SDS011;10380;52.102;20.614;2022-08-07T20:16:26;7.72;;;4.00;;
20441;SDS011;10380;52.102;20.614;2022-08-07T20:19:03;8.27;;;4.25;;
20441;SDS011;10380;52.102;20.614;2022-08-07T20:21:37;13.05;;;5.43;;
20441;SDS011;10380;52.102;20.614;2022-08-07T20:24:18;10.13;;;4.65;;
20441;SDS011;10380;52.102;20.614;2022-08-07T20:26:57;10.55;;;4.95;;
20441;SDS011;10380;52.102;20.614;2022-08-07T20:29:33;9.15;;;5.13;;
20441;SDS011;10380;52.102;20.614;2022-08-07T20:32:42;13.50;;;6.07;;
20441;SDS011;10380;52.102;20.614;2022-08-07T20:35:16;11.98;;;6.93;;